createdAt,value
2022-08-08T00:00:54.000Z,19.9
2022-08-08T00:02:05.000Z,19.9
2022-08-08T00:03:17.000Z,19.9
2022-08-08T00:04:29.000Z,19.8
2022-08-08T00:05:42.000Z,19.8
2022-08-08T00:06:54.000Z,19.8
2022-08-08T00:08:06.000Z,19.8
2022-08-08T00:09:18.000Z,19.8
2022-08-08T00:10:30.000Z,19.8
2022-08-08T00:11:43.000Z,19.8
2022-08-08T00:12:55.000Z,19.7
2022-08-08T00:14:07.000Z,19.7
2022-08-08T00:15:19.000Z,19.7
2022-08-08T00:16:31.000Z,19.7
2022-08-08T00:17:42.000Z,19.7
2022-08-08T00:18:55.000Z,19.7
2022-08-08T00:20:07.000Z,19.7
2022-08-08T00:21:19.000Z,19.7
2022-08-08T00:22:31.000Z,19.7
2022-08-08T00:23:43.000Z,19.6
2022-08-08T00:24:56.000Z,19.6
2022-08-08T00:26:08.000Z,19.6
2022-08-08T00:27:20.000Z,19.6
2022-08-08T00:28:32.000Z,19.6
2022-08-08T00:29:44.000Z,19.6
2022-08-08T00:30:57.000Z,19.5
2022-08-08T00:32:09.000Z,19.5
2022-08-08T00:33:20.000Z,19.5
2022-08-08T00:34:32.000Z,19.5
2022-08-08T00:35:44.000Z,19.5
2022-08-08T00:36:56.000Z,19.5
2022-08-08T00:38:09.000Z,19.5
2022-08-08T00:39:21.000Z,19.5
2022-08-08T00:40:33.000Z,19.5
2022-08-08T00:41:45.000Z,19.5
2022-08-08T00:42:57.000Z,19.5
2022-08-08T00:44:10.000Z,19.5
2022-08-08T00:45:22.000Z,19.5
2022-08-08T00:46:34.000Z,19.4
2022-08-08T00:47:46.000Z,19.4
2022-08-08T00:48:57.000Z,19.4
2022-08-08T00:50:09.000Z,19.4
2022-08-08T00:51:22.000Z,19.4
2022-08-08T00:52:34.000Z,19.4
2022-08-08T00:53:46.000Z,19.4
2022-08-08T00:54:58.000Z,19.4
2022-08-08T00:56:10.000Z,19.4
2022-08-08T00:57:23.000Z,19.3
2022-08-08T00:58:35.000Z,19.3
2022-08-08T00:59:47.000Z,19.3
2022-08-08T01:00:59.000Z,19.3
2022-08-08T01:02:11.000Z,19.3
2022-08-08T01:03:23.000Z,19.3
2022-08-08T01:04:35.000Z,19.3
2022-08-08T01:05:47.000Z,19.3
2022-08-08T01:06:59.000Z,19.2
2022-08-08T01:08:11.000Z,19.2
2022-08-08T01:09:23.000Z,19.2
2022-08-08T01:10:36.000Z,19.2
2022-08-08T01:11:48.000Z,19.2
2022-08-08T01:13:00.000Z,19.2
2022-08-08T01:14:12.000Z,19.2
2022-08-08T01:15:24.000Z,19.2
2022-08-08T01:16:37.000Z,19.2
2022-08-08T01:17:49.000Z,19.2
2022-08-08T01:19:01.000Z,19.1
2022-08-08T01:20:12.000Z,19.1
2022-08-08T01:21:24.000Z,19.1
2022-08-08T01:22:36.000Z,19.1
2022-08-08T01:23:49.000Z,19.1
2022-08-08T01:25:01.000Z,19.1
2022-08-08T01:26:13.000Z,19.1
2022-08-08T01:27:25.000Z,19.1
2022-08-08T01:28:37.000Z,19.1
2022-08-08T01:29:50.000Z,19
2022-08-08T01:31:02.000Z,19
2022-08-08T01:32:14.000Z,19
2022-08-08T01:33:26.000Z,19
2022-08-08T01:34:38.000Z,19
2022-08-08T01:35:50.000Z,19
2022-08-08T01:37:02.000Z,19
2022-08-08T01:38:14.000Z,19
2022-08-08T01:39:26.000Z,19
2022-08-08T01:40:38.000Z,19
2022-08-08T01:41:50.000Z,19
2022-08-08T01:43:03.000Z,18.9
2022-08-08T01:44:15.000Z,18.9
2022-08-08T01:45:27.000Z,18.9
2022-08-08T01:46:39.000Z,18.9
2022-08-08T01:47:51.000Z,18.9
2022-08-08T01:49:04.000Z,18.9
2022-08-08T01:50:16.000Z,18.9
2022-08-08T01:51:27.000Z,18.9
2022-08-08T01:52:39.000Z,18.9
2022-08-08T01:53:51.000Z,18.9
2022-08-08T01:55:03.000Z,18.8
2022-08-08T01:56:16.000Z,18.8
2022-08-08T01:57:28.000Z,18.8
2022-08-08T01:58:40.000Z,18.8
2022-08-08T01:59:52.000Z,18.8
2022-08-08T02:01:04.000Z,18.8
2022-08-08T02:02:17.000Z,18.8
2022-08-08T02:03:29.000Z,18.8
2022-08-08T02:04:41.000Z,18.7
2022-08-08T02:05:53.000Z,18.7
2022-08-08T02:07:04.000Z,18.7
2022-08-08T02:08:17.000Z,18.7
2022-08-08T02:09:29.000Z,18.7
2022-08-08T02:10:41.000Z,18.7
2022-08-08T02:11:53.000Z,18.7
2022-08-08T02:13:04.000Z,18.7
2022-08-08T02:14:16.000Z,18.7
2022-08-08T02:15:29.000Z,18.7
2022-08-08T02:16:41.000Z,18.6
2022-08-08T02:17:53.000Z,18.6
2022-08-08T02:19:05.000Z,18.6
2022-08-08T02:20:17.000Z,18.6
2022-08-08T02:21:30.000Z,18.6
2022-08-08T02:22:42.000Z,18.6
2022-08-08T02:23:54.000Z,18.6
2022-08-08T02:25:06.000Z,18.6
2022-08-08T02:26:18.000Z,18.6
2022-08-08T02:27:30.000Z,18.5
2022-08-08T02:28:42.000Z,18.5
2022-08-08T02:29:54.000Z,18.5
2022-08-08T02:31:06.000Z,18.5
2022-08-08T02:32:18.000Z,18.5
2022-08-08T02:33:30.000Z,18.5
2022-08-08T02:34:43.000Z,18.5
2022-08-08T02:35:55.000Z,18.4
2022-08-08T02:37:07.000Z,18.4
2022-08-08T02:38:19.000Z,18.4
2022-08-08T02:39:31.000Z,18.4
2022-08-08T02:40:43.000Z,18.4
2022-08-08T02:41:56.000Z,18.4
2022-08-08T02:43:08.000Z,18.4
2022-08-08T02:44:19.000Z,18.4
2022-08-08T02:45:31.000Z,18.4
2022-08-08T02:46:43.000Z,18.4
2022-08-08T02:47:56.000Z,18.4
2022-08-08T02:49:08.000Z,18.4
2022-08-08T02:50:20.000Z,18.3
2022-08-08T02:51:32.000Z,18.3
2022-08-08T02:52:44.000Z,18.3
2022-08-08T02:53:57.000Z,18.3
2022-08-08T02:55:09.000Z,18.3
2022-08-08T02:56:21.000Z,18.3
2022-08-08T02:57:33.000Z,18.3
2022-08-08T02:58:45.000Z,18.3
2022-08-08T02:59:56.000Z,18.3
2022-08-08T03:01:09.000Z,18.2
2022-08-08T03:02:21.000Z,18.2
2022-08-08T03:03:33.000Z,18.2
2022-08-08T03:04:45.000Z,18.2
2022-08-08T03:05:57.000Z,18.2
2022-08-08T03:07:10.000Z,18.2
2022-08-08T03:08:22.000Z,18.2
2022-08-08T03:09:34.000Z,18.2
2022-08-08T03:10:46.000Z,18.2
2022-08-08T03:11:58.000Z,18.2
2022-08-08T03:13:10.000Z,18.2
2022-08-08T03:14:23.000Z,18.2
2022-08-08T03:15:34.000Z,18.1
2022-08-08T03:16:46.000Z,18.1
2022-08-08T03:17:58.000Z,18.1
2022-08-08T03:19:10.000Z,18.1
2022-08-08T03:20:23.000Z,18.1
2022-08-08T03:21:35.000Z,18.1
2022-08-08T03:22:47.000Z,18.1
2022-08-08T03:23:59.000Z,18.1
2022-08-08T03:25:11.000Z,18.1
2022-08-08T03:26:24.000Z,18.1
2022-08-08T03:27:36.000Z,18.1
2022-08-08T03:28:48.000Z,18.1
2022-08-08T03:30:00.000Z,18.1
2022-08-08T03:31:11.000Z,18.1
2022-08-08T03:32:23.000Z,18.1
2022-08-08T03:33:36.000Z,18.1
2022-08-08T03:34:48.000Z,18
2022-08-08T03:36:00.000Z,18
2022-08-08T03:37:12.000Z,18
2022-08-08T03:38:24.000Z,18
2022-08-08T03:39:37.000Z,18
2022-08-08T03:40:49.000Z,18
2022-08-08T03:42:01.000Z,18
2022-08-08T03:43:13.000Z,18
2022-08-08T03:44:25.000Z,18
2022-08-08T03:45:37.000Z,18
2022-08-08T03:46:49.000Z,18
2022-08-08T03:48:01.000Z,18
2022-08-08T03:49:13.000Z,18
2022-08-08T03:50:25.000Z,18
2022-08-08T03:51:37.000Z,18
2022-08-08T03:52:50.000Z,18
2022-08-08T03:54:02.000Z,18
2022-08-08T03:55:14.000Z,18
2022-08-08T03:56:26.000Z,18
2022-08-08T03:57:38.000Z,18
2022-08-08T03:58:51.000Z,18
2022-08-08T04:00:03.000Z,18
2022-08-08T04:01:15.000Z,18
2022-08-08T04:02:26.000Z,18
2022-08-08T04:03:38.000Z,18
2022-08-08T04:04:50.000Z,18
2022-08-08T04:06:03.000Z,18
2022-08-08T04:07:15.000Z,18
2022-08-08T04:08:27.000Z,18
2022-08-08T04:09:39.000Z,18
2022-08-08T04:10:51.000Z,18
2022-08-08T04:12:04.000Z,18
2022-08-08T04:13:16.000Z,18
2022-08-08T04:14:28.000Z,18
2022-08-08T04:15:40.000Z,18
2022-08-08T04:16:52.000Z,18
2022-08-08T04:18:04.000Z,18
2022-08-08T04:19:16.000Z,18.1
2022-08-08T04:20:28.000Z,18.1
2022-08-08T04:21:40.000Z,18.1
2022-08-08T04:22:52.000Z,18.1
2022-08-08T04:24:04.000Z,18.1
2022-08-08T04:25:17.000Z,18.1
2022-08-08T04:26:29.000Z,18.1
2022-08-08T04:27:41.000Z,18.1
2022-08-08T04:28:53.000Z,18.1
2022-08-08T04:30:05.000Z,18.1
2022-08-08T04:31:18.000Z,18.1
2022-08-08T04:32:30.000Z,18.1
2022-08-08T04:33:41.000Z,18.1
2022-08-08T04:34:53.000Z,18.1
2022-08-08T04:36:05.000Z,18.1
2022-08-08T04:37:17.000Z,18.1
2022-08-08T04:38:30.000Z,18.1
2022-08-08T04:39:42.000Z,18.1
2022-08-08T04:40:54.000Z,18.1
2022-08-08T04:42:06.000Z,18.1
2022-08-08T04:43:18.000Z,18.2
2022-08-08T04:44:31.000Z,18.2
2022-08-08T04:45:43.000Z,18.2
2022-08-08T04:46:55.000Z,18.2
2022-08-08T04:48:07.000Z,18.2
2022-08-08T04:49:18.000Z,18.2
2022-08-08T04:50:31.000Z,18.2
2022-08-08T04:51:43.000Z,18.2
2022-08-08T04:52:55.000Z,18.3
2022-08-08T04:54:07.000Z,18.3
2022-08-08T04:55:19.000Z,18.3
2022-08-08T04:56:31.000Z,18.3
2022-08-08T04:57:44.000Z,18.3
2022-08-08T04:58:56.000Z,18.3
2022-08-08T05:00:08.000Z,18.4
2022-08-08T05:01:20.000Z,18.4
2022-08-08T05:02:32.000Z,18.4
2022-08-08T05:03:45.000Z,18.4
2022-08-08T05:04:56.000Z,18.5
2022-08-08T05:06:08.000Z,18.6
2022-08-08T05:07:20.000Z,18.8
2022-08-08T05:08:32.000Z,19.2
2022-08-08T05:09:44.000Z,19.7
2022-08-08T05:10:57.000Z,20.2
2022-08-08T05:13:21.000Z,20.5
2022-08-08T05:14:33.000Z,20.4
2022-08-08T05:15:45.000Z,20.2
2022-08-08T05:16:58.000Z,20.1
2022-08-08T05:17:05.693Z,20.4
2022-08-08T05:18:10.000Z,20
2022-08-08T05:19:22.000Z,19.9
2022-08-08T05:20:33.000Z,19.8
2022-08-08T05:21:45.000Z,19.8
2022-08-08T05:22:58.000Z,19.7
2022-08-08T05:24:10.000Z,19.7
2022-08-08T05:25:22.000Z,19.6
2022-08-08T05:26:34.000Z,19.5
2022-08-08T05:27:46.000Z,19.5
2022-08-08T05:28:58.000Z,19.5
2022-08-08T05:30:11.000Z,19.5
2022-08-08T05:31:23.000Z,19.5
2022-08-08T05:32:35.000Z,19.4
2022-08-08T05:33:47.000Z,19.4
2022-08-08T05:34:59.000Z,19.5
2022-08-08T05:36:11.000Z,19.5
2022-08-08T05:37:23.000Z,19.5
2022-08-08T05:38:35.000Z,19.5
2022-08-08T05:39:47.000Z,19.5
2022-08-08T05:40:59.000Z,19.5
2022-08-08T05:42:11.000Z,19.5
2022-08-08T05:43:24.000Z,19.5
2022-08-08T05:44:36.000Z,19.5
2022-08-08T05:45:48.000Z,19.5
2022-08-08T05:47:00.000Z,19.5
2022-08-08T05:48:12.000Z,19.5
2022-08-08T05:49:25.000Z,19.5
2022-08-08T05:50:37.000Z,19.5
2022-08-08T05:51:48.000Z,19.5
2022-08-08T05:53:00.000Z,19.5
2022-08-08T05:54:12.000Z,19.5
2022-08-08T05:55:25.000Z,19.5
2022-08-08T05:56:37.000Z,19.5
2022-08-08T05:57:49.000Z,19.5
2022-08-08T05:59:01.000Z,19.6
2022-08-08T06:00:13.000Z,19.6
2022-08-08T06:01:25.000Z,19.6
2022-08-08T06:02:38.000Z,19.6
2022-08-08T06:03:50.000Z,19.7
2022-08-08T06:05:02.000Z,19.7
2022-08-08T06:06:14.000Z,19.8
2022-08-08T06:07:25.000Z,19.8
2022-08-08T06:08:38.000Z,19.8
2022-08-08T06:09:50.000Z,19.8
2022-08-08T06:11:02.000Z,19.9
2022-08-08T06:13:26.000Z,19.9
2022-08-08T06:14:37.000Z,19.9
2022-08-08T06:15:50.000Z,19.9
2022-08-08T06:17:02.000Z,19.9
2022-08-08T06:17:10.974Z,19.9
2022-08-08T06:18:14.000Z,19.9
2022-08-08T06:19:26.000Z,20
2022-08-08T06:20:38.000Z,19.9
2022-08-08T06:21:51.000Z,20
2022-08-08T06:23:03.000Z,20
2022-08-08T06:24:15.000Z,20
2022-08-08T06:25:27.000Z,20
2022-08-08T06:26:39.000Z,20
2022-08-08T06:27:51.000Z,20.1
2022-08-08T06:29:04.000Z,20.1
2022-08-08T06:30:15.000Z,20.1
2022-08-08T06:31:27.000Z,20.1
2022-08-08T06:32:39.000Z,20.1
2022-08-08T06:33:51.000Z,20.2
2022-08-08T06:35:04.000Z,20.2
2022-08-08T06:36:16.000Z,20.2
2022-08-08T06:37:28.000Z,20.2
2022-08-08T06:38:40.000Z,20.3
2022-08-08T06:39:52.000Z,20.3
2022-08-08T06:41:05.000Z,20.4
2022-08-08T06:42:17.000Z,20.7
2022-08-08T06:43:29.000Z,20.9
2022-08-08T06:44:41.000Z,21
2022-08-08T06:45:52.000Z,21.1
2022-08-08T06:47:04.000Z,21.1
2022-08-08T06:48:17.000Z,21.1
2022-08-08T06:49:29.000Z,21
2022-08-08T06:50:41.000Z,20.9
2022-08-08T06:51:53.000Z,20.9
2022-08-08T06:53:05.000Z,20.9
2022-08-08T06:54:18.000Z,20.9
2022-08-08T06:55:30.000Z,20.9
2022-08-08T06:56:42.000Z,20.9
2022-08-08T06:57:54.000Z,20.9
2022-08-08T06:59:06.000Z,20.9
2022-08-08T07:00:18.000Z,20.9
2022-08-08T07:01:30.000Z,20.9
2022-08-08T07:02:42.000Z,21
2022-08-08T07:03:54.000Z,21
2022-08-08T07:05:06.000Z,21
2022-08-08T07:06:18.000Z,21.1
2022-08-08T07:07:31.000Z,21.1
2022-08-08T07:08:43.000Z,21.1
2022-08-08T07:09:55.000Z,21.2
2022-08-08T07:11:07.000Z,21.3
2022-08-08T07:12:19.000Z,21.3
2022-08-08T07:13:32.000Z,21.4
2022-08-08T07:14:44.000Z,21.4
2022-08-08T07:15:56.000Z,21.4
2022-08-08T07:17:07.000Z,21.4
2022-08-08T07:18:19.000Z,21.4
2022-08-08T07:19:31.000Z,21.5
2022-08-08T07:20:44.000Z,21.7
2022-08-08T07:21:56.000Z,22
2022-08-08T07:23:08.000Z,22.1
2022-08-08T07:24:20.000Z,22.5
2022-08-08T07:25:32.000Z,22.7
2022-08-08T07:26:45.000Z,22.6
2022-08-08T07:27:57.000Z,22.5
2022-08-08T07:29:09.000Z,22.3
2022-08-08T07:30:21.000Z,22.3
2022-08-08T07:31:33.000Z,22.2
2022-08-08T07:32:45.000Z,22.1
2022-08-08T07:33:57.000Z,22.1
2022-08-08T07:35:09.000Z,22.1
2022-08-08T07:36:21.000Z,22.1
2022-08-08T07:37:33.000Z,22.1
2022-08-08T07:38:45.000Z,22.1
2022-08-08T07:39:58.000Z,22.1
2022-08-08T07:41:10.000Z,22.2
2022-08-08T07:42:22.000Z,22.2
2022-08-08T07:43:34.000Z,22.2
2022-08-08T07:44:46.000Z,22.2
2022-08-08T07:45:59.000Z,22.3
2022-08-08T07:47:11.000Z,22.3
2022-08-08T07:48:23.000Z,22.3
2022-08-08T07:49:34.000Z,22.4
2022-08-08T07:50:46.000Z,22.4
2022-08-08T07:51:58.000Z,22.5
2022-08-08T07:53:11.000Z,22.5
2022-08-08T07:54:23.000Z,22.6
2022-08-08T07:55:35.000Z,22.6
2022-08-08T07:56:47.000Z,22.7
2022-08-08T07:57:59.000Z,22.8
2022-08-08T07:59:12.000Z,22.8
2022-08-08T08:00:24.000Z,22.9
2022-08-08T08:01:36.000Z,23
2022-08-08T08:02:48.000Z,23.1
2022-08-08T08:04:00.000Z,23.3
2022-08-08T08:05:12.000Z,23.3
2022-08-08T08:06:24.000Z,23.4
2022-08-08T08:07:36.000Z,23.4
2022-08-08T08:08:48.000Z,23.5
2022-08-08T08:10:00.000Z,23.5
2022-08-08T08:11:12.000Z,23.6
2022-08-08T08:12:25.000Z,23.7
2022-08-08T08:13:37.000Z,23.8
2022-08-08T08:14:49.000Z,23.9
2022-08-08T08:16:01.000Z,24
2022-08-08T08:17:13.000Z,24.1
2022-08-08T08:18:26.000Z,24.1
2022-08-08T08:19:38.000Z,24.2
2022-08-08T08:20:49.000Z,24.2
2022-08-08T08:22:01.000Z,24.3
2022-08-08T08:23:13.000Z,24.4
2022-08-08T08:24:26.000Z,24.4
2022-08-08T08:25:38.000Z,24.5
2022-08-08T08:26:50.000Z,24.5
2022-08-08T08:28:02.000Z,24.5
2022-08-08T08:29:14.000Z,24.6
2022-08-08T08:30:26.000Z,24.6
2022-08-08T08:31:39.000Z,24.6
2022-08-08T08:32:51.000Z,24.7
2022-08-08T08:34:03.000Z,24.8
2022-08-08T08:35:15.000Z,24.8
2022-08-08T08:36:26.000Z,24.9
2022-08-08T08:37:39.000Z,25
2022-08-08T08:38:51.000Z,25
2022-08-08T08:40:03.000Z,25.1
2022-08-08T08:41:15.000Z,25.2
2022-08-08T08:42:27.000Z,25.3
2022-08-08T08:43:39.000Z,25.4
2022-08-08T08:44:52.000Z,25.6
2022-08-08T08:46:04.000Z,25.7
2022-08-08T08:47:16.000Z,25.8
2022-08-08T08:48:28.000Z,25.9
2022-08-08T08:49:40.000Z,26
2022-08-08T08:50:53.000Z,26.1
2022-08-08T08:52:04.000Z,26.2
2022-08-08T08:53:16.000Z,26.3
2022-08-08T08:54:28.000Z,26.4
2022-08-08T08:55:40.000Z,26.5
2022-08-08T08:56:53.000Z,26.5
2022-08-08T08:58:05.000Z,26.6
2022-08-08T08:59:17.000Z,26.6
2022-08-08T09:00:29.000Z,26.6
2022-08-08T09:01:41.000Z,26.6
2022-08-08T09:02:53.000Z,26.6
2022-08-08T09:04:06.000Z,26.7
2022-08-08T09:05:18.000Z,26.7
2022-08-08T09:06:30.000Z,26.7
2022-08-08T09:07:41.000Z,26.7
2022-08-08T09:08:53.000Z,26.7
2022-08-08T09:10:06.000Z,26.7
2022-08-08T09:11:18.000Z,26.8
2022-08-08T09:12:30.000Z,26.8
2022-08-08T09:13:42.000Z,26.8
2022-08-08T09:14:54.000Z,26.9
2022-08-08T09:16:07.000Z,26.9
2022-08-08T09:17:19.000Z,26.9
2022-08-08T09:18:31.000Z,27
2022-08-08T09:19:43.000Z,27
2022-08-08T09:20:55.000Z,27.1
2022-08-08T09:22:07.000Z,27.6
2022-08-08T09:23:19.000Z,28.2
2022-08-08T09:24:31.000Z,28.2
2022-08-08T09:25:43.000Z,28.1
2022-08-08T09:26:55.000Z,28
2022-08-08T09:28:07.000Z,28.2
2022-08-08T09:29:20.000Z,28.4
2022-08-08T09:30:32.000Z,28.5
2022-08-08T09:31:44.000Z,28.6
2022-08-08T09:32:56.000Z,28.7
2022-08-08T09:34:08.000Z,28.9
2022-08-08T09:35:20.000Z,28.9
2022-08-08T09:36:33.000Z,28.9
2022-08-08T09:38:56.000Z,28.9
2022-08-08T09:40:08.000Z,29.1
2022-08-08T09:41:20.000Z,29.6
2022-08-08T09:42:33.000Z,29.7
2022-08-08T09:42:41.893Z,28.9
2022-08-08T09:43:45.000Z,29.7
2022-08-08T09:44:57.000Z,29.8
2022-08-08T09:46:09.000Z,29.8
2022-08-08T09:47:21.000Z,29.7
2022-08-08T09:48:34.000Z,29.8
2022-08-08T09:49:46.000Z,30.2
2022-08-08T09:50:58.000Z,30.6
2022-08-08T09:52:10.000Z,30.8
2022-08-08T09:53:22.000Z,30.9
2022-08-08T09:54:33.000Z,31
2022-08-08T09:56:58.000Z,31.9
2022-08-08T09:59:22.000Z,32.8
2022-08-08T10:00:34.000Z,33.4
2022-08-08T10:00:42.723Z,31.4
2022-08-08T10:01:47.000Z,33.9
2022-08-08T10:02:59.000Z,34.9
2022-08-08T10:03:07.083Z,32.3
2022-08-08T10:04:11.000Z,35.7
2022-08-08T10:05:23.000Z,36.5
2022-08-08T10:06:35.000Z,37.7
2022-08-08T10:07:48.000Z,39.2
2022-08-08T10:09:00.000Z,40.6
2022-08-08T10:10:11.000Z,42
2022-08-08T10:11:23.000Z,42.6
2022-08-08T10:12:35.000Z,42.4
2022-08-08T10:13:47.000Z,42.8
2022-08-08T10:15:00.000Z,43.7
2022-08-08T10:16:11.000Z,43.7
2022-08-08T10:17:23.000Z,43.2
2022-08-08T10:18:35.000Z,42.8
2022-08-08T10:19:47.000Z,42
2022-08-08T10:21:00.000Z,41
2022-08-08T10:22:12.000Z,40.1
2022-08-08T10:23:24.000Z,39.4
2022-08-08T10:24:36.000Z,38.9
2022-08-08T10:25:48.000Z,38.5
2022-08-08T10:27:01.000Z,38.3
2022-08-08T10:28:13.000Z,38.8
2022-08-08T10:29:25.000Z,40.1
2022-08-08T10:30:37.000Z,41.2
2022-08-08T10:31:48.000Z,43.5
2022-08-08T10:33:00.000Z,46.4
2022-08-08T10:34:13.000Z,48.9
2022-08-08T10:35:25.000Z,50.9
2022-08-08T10:36:37.000Z,52.6
2022-08-08T10:37:49.000Z,54
2022-08-08T10:39:01.000Z,55.2
2022-08-08T10:40:14.000Z,56.3
2022-08-08T10:41:26.000Z,57.4
2022-08-08T10:42:38.000Z,58.2
2022-08-08T10:43:50.000Z,58.9
2022-08-08T10:45:02.000Z,59.5
2022-08-08T10:46:14.000Z,60
2022-08-08T10:47:26.000Z,60.4
2022-08-08T10:48:38.000Z,61
2022-08-08T10:49:50.000Z,61.5
2022-08-08T10:51:02.000Z,62
2022-08-08T10:52:14.000Z,62.2
2022-08-08T10:53:27.000Z,62.5
2022-08-08T10:54:39.000Z,62.8
2022-08-08T10:55:51.000Z,63.1
2022-08-08T10:57:03.000Z,63.5
2022-08-08T10:58:15.000Z,63.9
2022-08-08T10:59:28.000Z,64.4
2022-08-08T11:01:52.000Z,65.3
2022-08-08T11:03:03.000Z,65.6
2022-08-08T11:04:15.000Z,65.6
2022-08-08T11:05:27.000Z,66.1
2022-08-08T11:05:36.000Z,64.9
2022-08-08T11:06:40.000Z,66.4
2022-08-08T11:07:52.000Z,66.7
2022-08-08T11:09:04.000Z,-17.9
2022-08-08T11:10:16.000Z,-17.5
2022-08-08T11:11:28.000Z,-17.2
2022-08-08T11:12:41.000Z,-17.6
2022-08-08T11:13:53.000Z,63.2
2022-08-08T11:15:05.000Z,64.7
2022-08-08T11:16:17.000Z,65.7
2022-08-08T11:17:29.000Z,66.2
2022-08-08T11:18:41.000Z,66.6
2022-08-08T11:19:53.000Z,66.9
2022-08-08T11:21:05.000Z,-17.7
2022-08-08T11:23:29.000Z,-17.1
2022-08-08T11:24:41.000Z,-16.9
2022-08-08T11:25:54.000Z,-17
2022-08-08T11:27:06.000Z,-17.2
2022-08-08T11:27:14.000Z,-17.4
2022-08-08T11:28:18.000Z,-17.4
2022-08-08T11:29:30.000Z,-17.6
2022-08-08T11:30:42.000Z,-17.7
2022-08-08T11:31:55.000Z,-17.8
2022-08-08T11:33:07.000Z,-18
2022-08-08T11:34:18.000Z,66.8
2022-08-08T11:35:30.000Z,66.6
2022-08-08T11:36:42.000Z,66.4
2022-08-08T11:37:55.000Z,66.3
2022-08-08T11:39:07.000Z,66.1
2022-08-08T11:40:19.000Z,65.9
2022-08-08T11:41:31.000Z,65.1
2022-08-08T11:42:43.000Z,63.1
2022-08-08T11:43:55.000Z,60.4
2022-08-08T11:45:08.000Z,57.8
2022-08-08T11:46:20.000Z,55.8
2022-08-08T11:47:32.554Z,54
2022-08-08T11:48:44.000Z,52.5
2022-08-08T11:49:55.000Z,51.1
2022-08-08T11:51:08.000Z,49.9
2022-08-08T11:52:20.000Z,48.7
2022-08-08T11:53:32.000Z,47.5
2022-08-08T11:55:56.000Z,45.6
2022-08-08T11:57:09.000Z,44.8
2022-08-08T11:58:21.000Z,44.2
2022-08-08T11:59:33.000Z,43.8
2022-08-08T11:59:41.000Z,46.5
2022-08-08T12:00:45.000Z,43.8
2022-08-08T12:01:57.000Z,43.7
2022-08-08T12:04:22.000Z,43.6
2022-08-08T12:05:33.000Z,43.8
2022-08-08T12:06:45.000Z,43.9
2022-08-08T12:07:57.000Z,43.9
2022-08-08T12:08:06.691Z,43.6
2022-08-08T12:09:09.000Z,43.8
2022-08-08T12:10:22.000Z,43.8
2022-08-08T12:11:34.000Z,43.8
2022-08-08T12:12:46.000Z,43.8
2022-08-08T12:13:58.000Z,43.8
2022-08-08T12:15:10.000Z,43.8
2022-08-08T12:16:23.000Z,43.6
2022-08-08T12:17:35.000Z,43.4
2022-08-08T12:18:47.000Z,43.3
2022-08-08T12:19:59.000Z,43.1
2022-08-08T12:21:10.000Z,42.9
2022-08-08T12:22:22.000Z,42.7
2022-08-08T12:23:35.000Z,42.5
2022-08-08T12:24:47.000Z,42.5
2022-08-08T12:25:59.000Z,42.5
2022-08-08T12:27:11.000Z,41.7
2022-08-08T12:28:23.000Z,39.8
2022-08-08T12:30:48.000Z,38.6
2022-08-08T12:32:00.000Z,39
2022-08-08T12:33:12.000Z,39
2022-08-08T12:34:24.000Z,38.8
2022-08-08T12:34:32.000Z,38.5
2022-08-08T12:35:37.000Z,38.3
2022-08-08T12:36:48.000Z,37.8
2022-08-08T12:38:00.000Z,37.2
2022-08-08T12:39:12.000Z,36.6
2022-08-08T12:41:36.000Z,35.6
2022-08-08T12:42:49.000Z,35.3
2022-08-08T12:44:01.000Z,34.9
2022-08-08T12:45:13.000Z,34.6
2022-08-08T12:45:21.000Z,36.1
2022-08-08T12:46:25.000Z,34.3
2022-08-08T12:47:37.000Z,34
2022-08-08T12:48:50.000Z,33.7
2022-08-08T12:50:02.000Z,33.5
2022-08-08T12:51:14.000Z,33.3
2022-08-08T12:52:25.000Z,33.1
2022-08-08T12:53:37.000Z,32.9
2022-08-08T12:54:50.000Z,32.7
2022-08-08T12:56:02.000Z,32.6
2022-08-08T12:57:14.000Z,32.5
2022-08-08T12:58:26.000Z,32.4
2022-08-08T12:59:38.000Z,32.3
2022-08-08T13:00:50.000Z,32.2
2022-08-08T13:02:03.000Z,32
2022-08-08T13:03:15.000Z,31.9
2022-08-08T13:04:27.000Z,31.7
2022-08-08T13:05:39.000Z,31.6
2022-08-08T13:06:51.000Z,31.5
2022-08-08T13:08:03.000Z,31.4
2022-08-08T13:10:27.000Z,31.1
2022-08-08T13:11:39.000Z,31
2022-08-08T13:12:51.000Z,30.9
2022-08-08T13:14:04.000Z,30.8
2022-08-08T13:14:11.000Z,31.3
2022-08-08T13:15:16.000Z,30.7
2022-08-08T13:17:40.000Z,30.5
2022-08-08T13:18:52.000Z,30.4
2022-08-08T13:20:04.000Z,30.3
2022-08-08T13:21:17.000Z,30.3
2022-08-08T13:21:25.000Z,30.6
2022-08-08T13:22:29.000Z,30.2
2022-08-08T13:23:41.000Z,30.1
2022-08-08T13:24:52.000Z,30.1
2022-08-08T13:26:04.000Z,30
2022-08-08T13:28:29.000Z,29.9
2022-08-08T13:29:41.000Z,29.8
2022-08-08T13:30:53.000Z,29.8
2022-08-08T13:32:05.000Z,29.8
2022-08-08T13:32:13.000Z,29.9
2022-08-08T13:33:17.000Z,29.7
2022-08-08T13:34:30.000Z,29.7
2022-08-08T13:35:42.000Z,29.6
2022-08-08T13:36:54.000Z,29.6
2022-08-08T13:38:06.000Z,29.6
2022-08-08T13:39:18.000Z,29.5
2022-08-08T13:40:30.000Z,29.5
2022-08-08T13:41:42.000Z,29.4
2022-08-08T13:42:54.000Z,29.3
2022-08-08T13:44:06.000Z,29.3
2022-08-08T13:45:18.000Z,29.2
2022-08-08T13:46:31.000Z,29.2
2022-08-08T13:47:43.000Z,29.2
2022-08-08T13:48:55.000Z,29.1
2022-08-08T13:50:07.000Z,29.1
2022-08-08T13:51:19.000Z,29.1
2022-08-08T13:52:31.000Z,29.1
2022-08-08T13:53:44.000Z,29
2022-08-08T13:56:07.000Z,28.9
2022-08-08T13:57:19.000Z,28.9
2022-08-08T13:58:31.000Z,28.8
2022-08-08T13:59:44.000Z,28.8
2022-08-08T13:59:53.000Z,29
2022-08-08T14:00:56.000Z,28.8
2022-08-08T14:02:08.000Z,28.8
2022-08-08T14:03:20.000Z,28.7
2022-08-08T14:04:32.000Z,28.7
2022-08-08T14:08:09.000Z,28.6
2022-08-08T14:09:21.000Z,28.6
2022-08-08T14:10:33.000Z,28.5
2022-08-08T14:10:41.000Z,28.7
2022-08-08T14:11:53.000Z,28.7
2022-08-08T14:12:57.000Z,28.4
2022-08-08T14:14:09.000Z,28.3
2022-08-08T14:15:21.000Z,28.3
2022-08-08T14:16:33.000Z,28.2
2022-08-08T14:16:41.000Z,28.4
2022-08-08T14:17:44.000Z,28.2
2022-08-08T14:18:57.000Z,28.1
2022-08-08T14:20:09.000Z,28
2022-08-08T14:21:21.000Z,28
2022-08-08T14:22:33.000Z,28
2022-08-08T14:23:45.000Z,28
2022-08-08T14:24:58.000Z,28
2022-08-08T14:26:10.000Z,28.1
2022-08-08T14:28:34.000Z,28.1
2022-08-08T14:29:46.000Z,28.1
2022-08-08T14:30:58.000Z,28.1
2022-08-08T14:32:11.000Z,28.1
2022-08-08T14:32:19.188Z,28.1
2022-08-08T14:33:22.000Z,28.1
2022-08-08T14:34:34.000Z,28.1
2022-08-08T14:35:46.000Z,28.1
2022-08-08T14:36:58.000Z,28.1
2022-08-08T14:38:11.000Z,28.1
2022-08-08T14:39:23.000Z,28.2
2022-08-08T14:40:35.000Z,28.2
2022-08-08T14:41:47.000Z,28.2
2022-08-08T14:42:59.000Z,28.3
2022-08-08T14:44:12.000Z,28.3
2022-08-08T14:45:24.000Z,28.3
2022-08-08T14:46:36.000Z,28.3
2022-08-08T14:47:48.000Z,28.3
2022-08-08T14:48:59.000Z,28.3
2022-08-08T14:50:11.000Z,28.2
2022-08-08T14:51:24.000Z,28.2
2022-08-08T14:52:36.000Z,28.1
2022-08-08T14:53:48.000Z,28.1
2022-08-08T14:55:00.000Z,28
2022-08-08T14:56:12.000Z,27.9
2022-08-08T14:57:25.000Z,27.8
2022-08-08T14:58:37.000Z,27.7
2022-08-08T14:59:49.000Z,27.6
2022-08-08T15:01:01.000Z,27.5
2022-08-08T15:02:13.000Z,27.4
2022-08-08T15:03:25.000Z,27.4
2022-08-08T15:05:49.000Z,27.2
2022-08-08T15:07:01.000Z,27.2
2022-08-08T15:08:13.000Z,27.1
2022-08-08T15:09:25.000Z,27.1
2022-08-08T15:09:33.000Z,27.3
2022-08-08T15:10:38.000Z,27.1
2022-08-08T15:11:50.000Z,27.1
2022-08-08T15:13:02.000Z,27.2
2022-08-08T15:14:14.000Z,27.3
2022-08-08T15:15:26.000Z,27.3
2022-08-08T15:16:39.000Z,27.4
2022-08-08T15:17:51.000Z,27.4
2022-08-08T15:19:03.000Z,27.5
2022-08-08T15:20:14.000Z,27.5
2022-08-08T15:21:26.000Z,27.5
2022-08-08T15:22:38.000Z,27.5
2022-08-08T15:23:51.000Z,27.5
2022-08-08T15:25:03.000Z,27.6
2022-08-08T15:26:15.000Z,27.6
2022-08-08T15:27:27.000Z,27.7
2022-08-08T15:28:39.000Z,27.7
2022-08-08T15:29:52.000Z,27.8
2022-08-08T15:31:04.000Z,27.7
2022-08-08T15:32:16.000Z,27.8
2022-08-08T15:33:28.000Z,27.9
2022-08-08T15:34:40.000Z,28
2022-08-08T15:35:52.000Z,28
2022-08-08T15:37:04.000Z,28
2022-08-08T15:38:16.000Z,28
2022-08-08T15:39:28.000Z,27.9
2022-08-08T15:40:40.000Z,27.9
2022-08-08T15:41:52.000Z,28
2022-08-08T15:43:05.000Z,27.9
2022-08-08T15:44:17.000Z,27.9
2022-08-08T15:45:29.000Z,27.9
2022-08-08T15:46:41.000Z,27.8
2022-08-08T15:47:53.000Z,27.8
2022-08-08T15:49:06.000Z,27.7
2022-08-08T15:50:18.000Z,27.6
2022-08-08T15:51:29.000Z,27.5
2022-08-08T15:52:41.000Z,27.4
2022-08-08T15:53:53.000Z,27.4
2022-08-08T15:55:06.000Z,27.3
2022-08-08T15:56:18.000Z,27.2
2022-08-08T15:57:30.000Z,27.2
2022-08-08T15:58:42.000Z,27.1
2022-08-08T15:59:54.000Z,27.1
2022-08-08T16:01:06.000Z,27.1
2022-08-08T16:02:19.000Z,27.1
2022-08-08T16:03:31.000Z,27
2022-08-08T16:04:43.000Z,27.1
2022-08-08T16:05:55.000Z,27.1
2022-08-08T16:07:06.000Z,27.1